Time;durP1;ratioP1;P1;durP2;ratioP2;P2;SDS_P1;SDS_P2;PMS_P1;PMS_P2;Temp;Humidity;BMP_temperature;BMP_pressure;BME280_temperature;BME280_humidity;BME280_pressure;Samples;Min_cycle;Max_cycle;Signal;HPM_P1;HPM_P2
2022/01/20 00:00:45;;;;;;;9.07;2.47;;;4.70;99.90;;;;;;5072030;28;20040;-60
2022/01/20 00:03:18;;;;;;;25.77;2.85;;;4.70;99.90;;;;;;5083099;28;20075;-61
2022/01/20 00:08:28;;;;;;;11.95;2.53;;;4.60;99.90;;;;;;5092355;28;20133;-60
2022/01/20 00:27:20;;;;;;;9.90;2.47;;;5.10;99.90;;;;;;5092571;28;20077;-62
2022/01/20 00:30:15;;;;;;;10.80;2.55;;;5.10;99.90;;;;;;5074180;28;20055;-61
2022/01/20 00:37:31;;;;;;;10.10;2.40;;;5.90;99.90;;;;;;5071455;28;20055;-61
2022/01/20 00:39:58;;;;;;;12.50;1.98;;;5.40;99.90;;;;;;5053758;28;20124;-60
2022/01/20 00:42:24;;;;;;;9.23;2.10;;;5.50;99.90;;;;;;5055477;28;20128;-59
2022/01/20 00:44:50;;;;;;;9.68;2.67;;;5.50;99.90;;;;;;5054101;28;20036;-62
2022/01/20 00:47:16;;;;;;;12.95;2.67;;;5.40;99.90;;;;;;5055229;28;20037;-62
2022/01/20 00:49:43;;;;;;;6.57;1.77;;;5.40;99.90;;;;;;5070996;28;20103;-60
2022/01/20 00:52:09;;;;;;;10.75;2.33;;;5.40;99.90;;;;;;5070875;28;20044;-62
2022/01/20 00:54:35;;;;;;;9.65;1.77;;;5.10;99.90;;;;;;5072102;28;20404;-62
2022/01/20 00:57:02;;;;;;;8.73;2.22;;;5.40;99.90;;;;;;5053747;28;20104;-60
2022/01/20 00:59:29;;;;;;;12.52;2.13;;;5.40;99.90;;;;;;5071521;28;20044;-60
2022/01/20 01:01:57;;;;;;;7.03;1.55;;;5.40;99.90;;;;;;5071272;28;20132;-62
2022/01/20 01:04:24;;;;;;;12.63;2.40;;;5.40;99.90;;;;;;5070751;28;20119;-63
2022/01/20 01:09:18;;;;;;;17.15;3.55;;;5.40;99.90;;;;;;5071741;28;20124;-62
2022/01/20 01:11:46;;;;;;;10.25;2.22;;;5.50;99.90;;;;;;5053535;28;20040;-61
2022/01/20 01:14:13;;;;;;;17.17;3.25;;;5.40;99.90;;;;;;5071463;28;20082;-62
2022/01/20 01:22:20;;;;;;;14.27;2.40;;;5.10;99.90;;;;;;5070800;28;20040;-61
2022/01/20 01:24:50;;;;;;;14.30;2.42;;;5.20;99.90;;;;;;5070894;28;20044;-62
2022/01/20 01:27:17;;;;;;;16.55;3.95;;;4.90;99.90;;;;;;5070472;28;20044;-62
2022/01/20 01:32:16;;;;;;;12.88;2.55;;;5.10;99.90;;;;;;5090744;28;20052;-62
2022/01/20 01:34:47;;;;;;;11.52;3.65;;;5.10;99.90;;;;;;5091207;28;20063;-62
2022/01/20 01:39:57;;;;;;;13.70;2.55;;;5.10;99.90;;;;;;5087450;28;20048;-61
2022/01/20 01:42:29;;;;;;;9.40;2.53;;;5.00;99.90;;;;;;5071486;28;20040;-61
2022/01/20 01:44:57;;;;;;;13.23;2.67;;;5.50;99.90;;;;;;5053883;28;20040;-62
2022/01/20 01:47:22;;;;;;;10.95;3.13;;;5.20;99.90;;;;;;5070231;28;20114;-62
2022/01/20 01:49:48;;;;;;;14.27;3.13;;;5.10;99.90;;;;;;5053255;28;20095;-59
2022/01/20 01:52:14;;;;;;;11.68;2.83;;;5.30;99.90;;;;;;5088073;28;20032;-61
2022/01/20 01:54:39;;;;;;;13.50;3.13;;;5.20;99.90;;;;;;5070030;28;20052;-62
2022/01/20 01:57:09;;;;;;;9.52;3.03;;;5.10;99.90;;;;;;5054598;28;20048;-60
2022/01/20 01:59:34;;;;;;;13.52;2.20;;;5.40;99.90;;;;;;5070987;28;20051;-61
2022/01/20 02:02:00;;;;;;;8.93;2.80;;;4.80;99.90;;;;;;5087365;28;20412;-62
2022/01/20 02:04:26;;;;;;;7.97;1.65;;;4.80;99.90;;;;;;5091425;28;20036;-62
2022/01/20 02:07:19;;;;;;;11.90;2.30;;;4.70;99.90;;;;;;5090525;28;20557;-62
2022/01/20 02:17:59;;;;;;;9.25;2.15;;;4.60;99.90;;;;;;5059675;28;20048;-61
2022/01/20 02:20:25;;;;;;;9.45;2.03;;;4.70;99.90;;;;;;5086249;28;20420;-61
2022/01/20 02:22:51;;;;;;;11.15;2.47;;;4.70;99.90;;;;;;5069722;28;20536;-61
2022/01/20 02:25:26;;;;;;;9.77;2.65;;;4.60;99.90;;;;;;5070839;28;20036;-62
2022/01/20 02:27:53;;;;;;;14.68;2.88;;;4.90;99.90;;;;;;5070250;28;20037;-61
2022/01/20 02:30:21;;;;;;;13.52;3.72;;;4.80;99.90;;;;;;5077116;28;20040;-61
2022/01/20 02:32:56;;;;;;;18.50;4.18;;;4.90;99.90;;;;;;5073486;28;20054;-61
2022/01/20 02:35:24;;;;;;;12.20;3.65;;;4.90;99.90;;;;;;5073424;28;20143;-61
2022/01/20 02:37:57;;;;;;;20.70;3.25;;;4.80;99.90;;;;;;5090279;28;20048;-61
2022/01/20 02:45:56;;;;;;;13.38;4.00;;;5.10;99.90;;;;;;5070147;28;20091;-62
2022/01/20 02:48:22;;;;;;;15.98;4.85;;;5.60;99.90;;;;;;5061309;28;20050;-62
2022/01/20 02:50:48;;;;;;;17.52;5.13;;;5.20;99.90;;;;;;5000802;28;20089;-61
2022/01/20 02:53:14;;;;;;;16.52;3.97;;;5.10;99.90;;;;;;4994929;28;20055;-62
2022/01/20 02:55:40;;;;;;;21.20;5.70;;;5.20;99.90;;;;;;5010518;28;20045;-59
2022/01/20 02:58:07;;;;;;;22.13;4.35;;;5.20;99.90;;;;;;5009953;28;20393;-62
2022/01/20 03:00:34;;;;;;;23.63;6.05;;;5.10;99.90;;;;;;5002043;28;20094;-62
2022/01/20 03:03:00;;;;;;;16.05;4.88;;;5.10;99.90;;;;;;4992301;28;20053;-62
2022/01/20 03:05:27;;;;;;;17.40;5.50;;;5.10;99.90;;;;;;4993918;28;20121;-62
2022/01/20 03:07:52;;;;;;;17.40;4.05;;;5.00;99.90;;;;;;4994155;28;20038;-62
2022/01/20 03:10:18;;;;;;;17.02;3.70;;;5.00;99.90;;;;;;5000692;28;20118;-61
2022/01/20 03:12:44;;;;;;;14.88;3.60;;;5.00;99.90;;;;;;4996873;28;20080;-60
2022/01/20 03:15:10;;;;;;;14.95;4.28;;;5.20;99.90;;;;;;4997705;28;20037;-62
2022/01/20 03:17:36;;;;;;;14.63;3.70;;;4.90;99.90;;;;;;4997328;28;20037;-61
2022/01/20 03:20:01;;;;;;;23.27;5.57;;;5.10;99.90;;;;;;5009248;28;20068;-61
2022/01/20 03:22:27;;;;;;;15.18;4.50;;;4.80;99.90;;;;;;4978529;28;20049;-60
2022/01/20 03:24:55;;;;;;;19.35;4.00;;;4.90;99.90;;;;;;4992914;28;20088;-61
2022/01/20 03:27:20;;;;;;;14.07;4.40;;;4.80;99.90;;;;;;4994187;28;20038;-61
2022/01/20 03:29:46;;;;;;;15.75;4.22;;;4.70;99.90;;;;;;4993814;28;20042;-61
2022/01/20 03:32:12;;;;;;;26.77;5.10;;;5.10;99.90;;;;;;5013153;28;20053;-61
2022/01/20 03:34:37;;;;;;;20.52;3.63;;;4.80;99.90;;;;;;5013660;28;20045;-61
2022/01/20 03:37:05;;;;;;;10.15;2.72;;;4.80;99.90;;;;;;5013289;28;20033;-62
2022/01/20 03:39:32;;;;;;;11.65;2.83;;;4.80;99.90;;;;;;4996643;28;20094;-61
2022/01/20 03:41:58;;;;;;;10.60;2.70;;;4.70;99.90;;;;;;4995104;28;20046;-62
2022/01/20 03:44:24;;;;;;;14.82;3.28;;;4.70;99.90;;;;;;4994159;28;20486;-62
2022/01/20 03:46:50;;;;;;;15.70;3.22;;;4.80;99.90;;;;;;4992684;28;20038;-62
2022/01/20 03:49:37;;;;;;;14.35;2.35;;;4.80;99.90;;;;;;4993575;28;20065;-61
2022/01/20 03:52:04;;;;;;;9.65;2.40;;;4.80;99.90;;;;;;4994453;28;20057;-61
2022/01/20 03:54:30;;;;;;;12.48;2.70;;;4.60;99.90;;;;;;4995672;28;20045;-62
2022/01/20 03:56:56;;;;;;;15.63;3.60;;;4.70;99.90;;;;;;4996791;28;20489;-62
2022/01/20 03:59:21;;;;;;;15.45;4.45;;;4.80;99.90;;;;;;4997159;28;20056;-62
2022/01/20 04:01:47;;;;;;;15.15;4.70;;;4.70;99.90;;;;;;4996678;28;20041;-62
2022/01/20 04:04:13;;;;;;;17.80;3.88;;;4.80;99.90;;;;;;4993561;28;20099;-62
2022/01/20 04:06:38;;;;;;;14.07;3.58;;;4.70;99.90;;;;;;4995014;28;20034;-61
2022/01/20 04:09:04;;;;;;;10.15;2.50;;;4.60;99.90;;;;;;4993082;28;20052;-61
2022/01/20 04:11:30;;;;;;;10.55;2.95;;;;;;;;;;4977556;28;20551;-61
2022/01/20 04:13:57;;;;;;;10.05;2.40;;;4.10;99.90;;;;;;4992414;28;20038;-62
2022/01/20 04:16:37;;;;;;;12.13;2.17;;;4.30;99.90;;;;;;5005149;28;20569;-62
2022/01/20 04:19:08;;;;;;;8.30;2.25;;;4.30;99.90;;;;;;5012088;28;20467;-62
2022/01/20 04:21:36;;;;;;;10.70;2.67;;;4.20;99.90;;;;;;5012718;28;20041;-62
2022/01/20 04:24:03;;;;;;;8.82;2.63;;;4.20;99.90;;;;;;5012719;28;20034;-60
2022/01/20 04:26:29;;;;;;;14.50;3.08;;;4.20;99.90;;;;;;4984958;28;20034;-62
2022/01/20 04:28:56;;;;;;;15.57;3.47;;;4.10;99.90;;;;;;4992380;28;20071;-60
2022/01/20 04:31:26;;;;;;;11.32;2.70;;;4.00;99.90;;;;;;4993621;28;20091;-61
2022/01/20 04:33:53;;;;;;;10.57;3.05;;;4.00;99.90;;;;;;4992939;28;20042;-60
2022/01/20 04:36:19;;;;;;;12.73;2.58;;;3.90;99.90;;;;;;5005671;28;20046;-60
2022/01/20 04:38:45;;;;;;;9.45;2.25;;;4.10;99.90;;;;;;4995970;28;20484;-59
2022/01/20 04:41:12;;;;;;;13.35;2.85;;;;;;;;;;5013291;28;20041;-61
2022/01/20 04:43:38;;;;;;;9.02;2.10;;;;;;;;;;5012053;28;20489;-60
2022/01/20 04:46:23;;;;;;;17.80;4.90;;;;;;;;;;4985603;28;20042;-60
2022/01/20 04:59:28;;;;;;;16.40;5.05;;;;;;;;;;5012832;28;20447;-59
2022/01/20 05:01:55;;;;;;;23.17;3.88;;;;;;;;;;5012242;28;20037;-60
2022/01/20 05:04:23;;;;;;;15.55;3.83;;;;;;;;;;5012460;28;20119;-59
2022/01/20 05:06:50;;;;;;;18.13;3.28;;;;;;;;;;4995907;28;20187;-59
2022/01/20 05:09:20;;;;;;;14.30;4.10;;;;;;;;;;4992697;28;20060;-59
2022/01/20 05:11:51;;;;;;;18.63;4.97;;;;;;;;;;4991427;28;20053;-60
2022/01/20 05:14:17;;;;;;;15.05;4.00;;;;;;;;;;4993117;28;20128;-60
2022/01/20 05:16:43;;;;;;;13.55;3.30;;;;;;;;;;5008550;28;20129;-60
2022/01/20 05:19:09;;;;;;;9.55;3.17;;;;;;;;;;4995069;28;20049;-60
2022/01/20 05:21:35;;;;;;;15.30;4.20;;;;;;;;;;5030223;28;20045;-60
2022/01/20 05:24:01;;;;;;;12.75;4.40;;;;;;;;;;5011562;28;20049;-60
2022/01/20 05:26:27;;;;;;;12.02;3.78;;;;;;;;;;4996624;28;20107;-60
2022/01/20 05:28:53;;;;;;;14.15;4.13;;;;;;;;;;4992209;28;20053;-60
2022/01/20 05:31:19;;;;;;;14.80;4.47;;;;;;;;;;4992606;28;20398;-60
2022/01/20 05:33:46;;;;;;;11.40;3.58;;;;;;;;;;4976269;28;20038;-60
2022/01/20 05:36:12;;;;;;;14.95;3.97;;;;;;;;;;5006407;28;20133;-59
2022/01/20 05:38:38;;;;;;;18.83;3.97;;;;;;;;;;4997225;28;20053;-59
2022/01/20 05:41:04;;;;;;;17.17;4.63;;;;;;;;;;4993134;28;20038;-60
2022/01/20 05:43:30;;;;;;;16.08;3.22;;;;;;;;;;4977257;28;20076;-59
2022/01/20 05:45:56;;;;;;;13.18;3.88;;;;;;;;;;4991347;28;20045;-59
2022/01/20 05:48:32;;;;;;;12.43;3.45;;;;;;;;;;4993344;28;20081;-61
2022/01/20 05:50:59;;;;;;;14.57;3.78;;;;;;;;;;4991669;28;20149;-60
2022/01/20 05:53:25;;;;;;;14.38;3.92;;;;;;;;;;4991752;28;20481;-60
2022/01/20 05:55:51;;;;;;;24.67;4.60;;;;;;;;;;4999490;28;20122;-59
2022/01/20 05:58:19;;;;;;;11.65;3.25;;;;;;;;;;4995200;28;20044;-60
2022/01/20 06:00:46;;;;;;;14.50;3.75;;;;;;;;;;4991394;28;20057;-60
2022/01/20 06:05:58;;;;;;;18.15;4.43;;;;;;;;;;4999761;28;20076;-61
2022/01/20 06:08:24;;;;;;;13.32;2.97;;;;;;;;;;5011147;28;20065;-61
2022/01/20 06:10:50;;;;;;;15.52;2.58;;;;;;;;;;4995083;28;20045;-60
2022/01/20 06:13:16;;;;;;;13.32;2.85;;;;;;;;;;5011649;28;20130;-60
2022/01/20 06:15:42;;;;;;;13.35;3.45;;;;;;;;;;5004037;28;20490;-60
2022/01/20 06:18:09;;;;;;;19.23;3.83;;;;;;;;;;4992203;28;20042;-59
2022/01/20 06:20:35;;;;;;;9.90;2.92;;;;;;;;;;4991072;28;20055;-59
2022/01/20 06:23:01;;;;;;;12.27;3.88;;;;;;;;;;4991411;28;20099;-59
2022/01/20 06:25:27;;;;;;;13.50;3.22;;;;;;;;;;4979364;28;20442;-60
2022/01/20 06:27:53;;;;;;;13.27;3.92;;;;;;;;;;5010086;28;20041;-60
2022/01/20 06:30:20;;;;;;;15.57;4.80;;;;;;;;;;5011171;28;20045;-60
2022/01/20 06:32:46;;;;;;;13.27;2.33;;;;;;;;;;5010623;28;20052;-60
2022/01/20 06:35:12;;;;;;;11.52;2.80;;;;;;;;;;5008326;28;20081;-60
2022/01/20 06:37:38;;;;;;;10.52;2.83;;;;;;;;;;4992933;28;20045;-60
2022/01/20 06:40:06;;;;;;;16.67;2.97;;;;;;;;;;4995176;28;20490;-60
2022/01/20 06:42:32;;;;;;;16.38;2.83;;;;;;;;;;4994413;28;20038;-60
2022/01/20 06:44:58;;;;;;;12.00;3.13;;;;;;;;;;4994799;28;20037;-61
2022/01/20 06:47:24;;;;;;;12.18;3.10;;;;;;;;;;5014220;28;20045;-60
2022/01/20 06:49:50;;;;;;;19.30;4.03;;;;;;;;;;5013080;28;20054;-62
2022/01/20 06:52:16;;;;;;;16.17;3.80;;;;;;;;;;4998055;28;20497;-60
2022/01/20 06:54:42;;;;;;;15.70;3.95;;;;;;;;;;5013932;28;20183;-60
2022/01/20 06:57:08;;;;;;;15.73;3.75;;;;;;;;;;5012257;28;20061;-60
2022/01/20 06:59:34;;;;;;;13.52;3.17;;;3.70;99.90;;;;;;4997516;28;20049;-60
2022/01/20 07:02:00;;;;;;;13.75;3.08;;;3.70;99.90;;;;;;5012136;28;20124;-60
2022/01/20 07:04:27;;;;;;;13.13;3.55;;;3.60;99.90;;;;;;5013530;28;20052;-61
2022/01/20 07:06:54;;;;;;;17.80;5.97;;;3.60;99.90;;;;;;5013917;28;20053;-61
2022/01/20 07:09:20;;;;;;;10.05;2.72;;;3.40;99.90;;;;;;5011169;28;20137;-61
2022/01/20 07:11:45;;;;;;;14.60;3.33;;;3.50;99.90;;;;;;4994116;28;20053;-61
2022/01/20 07:14:11;;;;;;;14.98;4.13;;;3.50;99.90;;;;;;4994471;28;20130;-61
2022/01/20 07:16:37;;;;;;;22.85;4.45;;;3.30;99.90;;;;;;4994626;28;20432;-60
2022/01/20 07:19:03;;;;;;;16.17;2.97;;;3.40;99.90;;;;;;4993593;28;20506;-61
2022/01/20 07:21:29;;;;;;;12.43;3.50;;;3.50;99.90;;;;;;5001370;28;20045;-61
2022/01/20 07:23:55;;;;;;;11.90;3.00;;;3.80;99.90;;;;;;5011122;28;20124;-61
2022/01/20 07:26:21;;;;;;;14.23;2.83;;;3.60;99.90;;;;;;5012388;28;20037;-62
2022/01/20 07:28:47;;;;;;;14.18;3.60;;;3.40;99.90;;;;;;4997596;28;20147;-62
2022/01/20 07:31:12;;;;;;;15.95;3.85;;;4.00;99.90;;;;;;4996790;28;20529;-62
2022/01/20 07:33:38;;;;;;;15.60;4.63;;;3.50;99.90;;;;;;5014142;28;20485;-62
2022/01/20 07:36:04;;;;;;;13.73;3.05;;;3.50;99.90;;;;;;4991338;28;20505;-62
2022/01/20 07:38:30;;;;;;;14.00;3.38;;;3.40;99.90;;;;;;4977347;28;20543;-61
2022/01/20 07:40:57;;;;;;;11.25;3.35;;;3.40;99.90;;;;;;4993358;28;20094;-62
2022/01/20 07:43:22;;;;;;;15.95;3.83;;;3.60;99.90;;;;;;4979020;28;20077;-61
2022/01/20 07:45:48;;;;;;;20.63;4.18;;;3.50;99.90;;;;;;4992794;28;20088;-62
2022/01/20 07:48:14;;;;;;;11.80;3.10;;;3.50;99.90;;;;;;4993359;28;20038;-60
2022/01/20 07:50:40;;;;;;;11.15;3.88;;;3.50;99.90;;;;;;4993433;28;20053;-61
2022/01/20 07:53:05;;;;;;;18.70;3.70;;;3.50;99.90;;;;;;4997177;28;20512;-61
2022/01/20 07:55:31;;;;;;;15.13;3.70;;;3.90;99.90;;;;;;4992153;28;20041;-61
2022/01/20 07:57:57;;;;;;;18.90;3.72;;;3.80;99.90;;;;;;5078797;28;20034;-61
2022/01/20 08:00:23;;;;;;;13.77;4.25;;;3.60;99.90;;;;;;5033257;28;20129;-61
2022/01/20 08:02:49;;;;;;;17.40;4.88;;;3.40;99.90;;;;;;4993055;28;20034;-60
2022/01/20 08:05:40;;;;;;;25.02;5.80;;;3.50;99.90;;;;;;4989566;28;20049;-61
2022/01/20 08:08:06;;;;;;;23.73;4.38;;;3.70;99.90;;;;;;4976817;28;20042;-62
2022/01/20 08:10:31;;;;;;;19.52;4.70;;;3.40;99.90;;;;;;4995866;28;20038;-62
2022/01/20 08:12:57;;;;;;;15.73;5.18;;;3.50;99.90;;;;;;4977361;28;20034;-60
2022/01/20 08:15:23;;;;;;;17.25;4.38;;;3.40;99.90;;;;;;5004276;28;20057;-61
2022/01/20 08:17:48;;;;;;;13.77;3.33;;;3.60;99.90;;;;;;4984346;28;20177;-61
2022/01/20 08:20:14;;;;;;;21.80;3.70;;;3.40;99.90;;;;;;5023221;28;20782;-61
2022/01/20 08:22:40;;;;;;;20.85;4.63;;;3.80;99.90;;;;;;4996615;28;20037;-60
2022/01/20 08:25:09;;;;;;;13.27;3.92;;;3.30;99.90;;;;;;5000137;28;20033;-60
2022/01/20 08:27:37;;;;;;;14.88;3.55;;;3.80;99.90;;;;;;4995733;28;20045;-60
2022/01/20 08:30:05;;;;;;;14.98;3.45;;;3.80;99.90;;;;;;4991517;28;20042;-60
2022/01/20 08:32:30;;;;;;;13.32;3.00;;;3.70;99.90;;;;;;4990590;28;20060;-60
2022/01/20 08:34:56;;;;;;;15.13;4.05;;;3.50;99.90;;;;;;5016600;28;20062;-60
2022/01/20 08:37:22;;;;;;;11.88;3.10;;;4.00;99.90;;;;;;5062154;28;20494;-60
2022/01/20 08:39:47;;;;;;;15.07;3.38;;;4.00;99.90;;;;;;5007365;28;20077;-60
2022/01/20 08:42:13;;;;;;;17.20;2.70;;;4.10;99.90;;;;;;4979173;28;20046;-60
2022/01/20 08:44:40;;;;;;;19.90;4.00;;;3.70;99.90;;;;;;4971012;28;20050;-61
2022/01/20 08:47:14;;;;;;;12.13;3.65;;;3.70;99.90;;;;;;4977616;28;20082;-60
2022/01/20 08:49:40;;;;;;;9.13;3.03;;;4.30;99.90;;;;;;4999956;28;20057;-60
2022/01/20 08:52:06;;;;;;;13.68;2.63;;;4.30;99.90;;;;;;4989338;28;20186;-60
2022/01/20 08:54:31;;;;;;;12.82;3.03;;;3.80;99.90;;;;;;5008137;28;20047;-61
2022/01/20 08:56:57;;;;;;;8.30;2.28;;;3.90;99.90;;;;;;4998740;28;20052;-60
2022/01/20 08:59:24;;;;;;;11.65;2.67;;;3.90;99.90;;;;;;4985740;28;20379;-60
2022/01/20 09:01:50;;;;;;;15.48;5.18;;;3.90;99.90;;;;;;4985937;28;20039;-60
2022/01/20 09:04:15;;;;;;;10.63;3.78;;;4.00;99.90;;;;;;4987687;28;20038;-62
2022/01/20 09:06:41;;;;;;;14.13;2.75;;;;;;;;;;4993853;28;20050;-60
2022/01/20 09:09:07;;;;;;;13.05;3.25;;;4.20;99.90;;;;;;5030980;28;20049;-60
2022/01/20 09:11:37;;;;;;;13.30;2.60;;;4.00;99.90;;;;;;4990125;28;20413;-60
2022/01/20 09:16:49;;;;;;;16.65;3.58;;;4.10;99.90;;;;;;4989878;28;20046;-60
2022/01/20 09:19:15;;;;;;;15.98;3.38;;;4.40;99.90;;;;;;4971331;28;20042;-59
2022/01/20 09:21:41;;;;;;;10.43;2.40;;;2.60;99.90;;;;;;4991732;28;20051;-60
2022/01/20 09:24:07;;;;;;;8.02;2.58;;;4.10;99.90;;;;;;5006794;28;20053;-59
2022/01/20 09:26:33;;;;;;;9.60;2.38;;;4.00;99.90;;;;;;4995160;28;20038;-59
2022/01/20 09:28:59;;;;;;;8.85;2.80;;;4.40;99.90;;;;;;4982024;28;20080;-59
2022/01/20 09:31:26;;;;;;;8.38;2.97;;;3.90;99.90;;;;;;4967390;28;20454;-60
2022/01/20 09:33:53;;;;;;;11.10;2.20;;;4.70;99.90;;;;;;4995355;28;20038;-59
2022/01/20 09:36:20;;;;;;;15.85;2.80;;;4.40;99.90;;;;;;4995557;28;20046;-59
2022/01/20 09:38:46;;;;;;;7.35;2.05;;;4.10;99.90;;;;;;4969113;28;20061;-59
2022/01/20 09:41:12;;;;;;;9.77;3.38;;;4.10;99.90;;;;;;5028823;28;20379;-59
2022/01/20 09:43:38;;;;;;;12.43;4.30;;;4.30;99.90;;;;;;4998588;28;20048;-59
2022/01/20 09:46:04;;;;;;;8.60;2.85;;;4.80;99.90;;;;;;5001626;28;20046;-61
2022/01/20 09:48:32;;;;;;;12.20;3.38;;;4.60;99.90;;;;;;5012021;28;20093;-61
2022/01/20 09:51:00;;;;;;;13.13;2.85;;;4.60;99.90;;;;;;5008280;28;20041;-59
2022/01/20 09:53:26;;;;;;;11.45;2.35;;;4.80;99.90;;;;;;5008261;28;20105;-60
2022/01/20 09:55:52;;;;;;;15.82;3.55;;;4.60;99.90;;;;;;5005426;28;20049;-59
2022/01/20 09:58:18;;;;;;;12.88;2.42;;;4.80;99.90;;;;;;4990266;28;20069;-60
2022/01/20 10:00:45;;;;;;;6.60;1.58;;;4.60;99.90;;;;;;4968712;28;20051;-60
2022/01/20 10:03:14;;;;;;;7.80;1.90;;;4.20;99.90;;;;;;4981599;28;20398;-59
2022/01/20 10:05:51;;;;;;;4.60;1.10;;;4.30;99.90;;;;;;4988602;28;20037;-60
2022/01/20 10:08:25;;;;;;;8.18;1.35;;;3.60;99.90;;;;;;5000468;28;20041;-59
2022/01/20 10:10:55;;;;;;;11.07;2.30;;;3.30;99.90;;;;;;4989484;28;20086;-59
2022/01/20 10:13:27;;;;;;;8.32;2.00;;;3.30;99.90;;;;;;5060623;28;20052;-59
2022/01/20 10:15:59;;;;;;;11.45;2.90;;;3.70;99.90;;;;;;5061403;28;20172;-60
2022/01/20 10:18:25;;;;;;;13.73;4.65;;;3.70;99.90;;;;;;5013917;28;20398;-59
2022/01/20 10:20:57;;;;;;;11.00;2.78;;;3.90;99.90;;;;;;4972191;28;20049;-60
2022/01/20 10:23:33;;;;;;;9.77;3.42;;;3.80;99.90;;;;;;5000544;28;20041;-60
2022/01/20 10:26:23;;;;;;;12.90;2.65;;;3.90;99.90;;;;;;5010256;28;20052;-59
2022/01/20 10:29:00;;;;;;;14.60;3.55;;;3.90;99.90;;;;;;4986772;28;20061;-60
2022/01/20 10:31:35;;;;;;;13.05;3.38;;;4.60;99.90;;;;;;4980101;28;20058;-60
2022/01/20 10:34:03;;;;;;;25.48;15.20;;;4.50;99.90;;;;;;4989877;28;20038;-59
2022/01/20 10:36:28;;;;;;;15.60;2.85;;;4.50;99.90;;;;;;4992682;28;20046;-60
2022/01/20 10:38:57;;;;;;;15.27;3.75;;;4.60;99.90;;;;;;4995140;28;20117;-60
2022/01/20 10:41:31;;;;;;;14.45;6.35;;;4.60;99.90;;;;;;4992428;28;20102;-62
2022/01/20 10:44:10;;;;;;;14.43;6.13;;;4.20;99.90;;;;;;5009757;28;20048;-61
2022/01/20 10:47:04;;;;;;;12.48;5.80;;;3.70;99.90;;;;;;4995766;28;20042;-60
2022/01/20 10:49:31;;;;;;;25.63;19.48;;;3.30;99.90;;;;;;5053329;28;20411;-60
2022/01/20 10:52:04;;;;;;;9.65;2.50;;;3.10;99.90;;;;;;5080522;28;20665;-60
2022/01/20 10:54:43;;;;;;;13.75;3.17;;;3.00;99.90;;;;;;4984462;28;20041;-61
2022/01/20 10:57:11;;;;;;;12.85;2.88;;;3.10;99.90;;;;;;4995203;28;20041;-61
2022/01/20 10:59:54;;;;;;;11.23;2.90;;;3.20;99.90;;;;;;4987027;28;20091;-60
2022/01/20 11:02:22;;;;;;;14.93;3.22;;;3.30;99.90;;;;;;4974969;28;20045;-61
2022/01/20 11:04:49;;;;;;;9.30;2.88;;;3.40;99.90;;;;;;4975690;28;20382;-61
2022/01/20 11:07:15;;;;;;;14.45;2.75;;;3.50;99.90;;;;;;4993532;28;20044;-61
2022/01/20 11:09:43;;;;;;;11.80;2.72;;;3.70;99.90;;;;;;4972146;28;20042;-60
2022/01/20 11:12:15;;;;;;;13.35;2.78;;;4.30;99.90;;;;;;5029718;28;20058;-59
2022/01/20 11:14:43;;;;;;;8.40;2.22;;;4.10;99.90;;;;;;5042750;28;20041;-60
2022/01/20 11:17:17;;;;;;;11.50;2.58;;;4.30;99.90;;;;;;5000146;28;20048;-61
2022/01/20 11:19:44;;;;;;;9.13;3.00;;;4.50;99.90;;;;;;5004756;28;20053;-59
2022/01/20 11:22:12;;;;;;;12.50;3.45;;;4.60;99.90;;;;;;5007447;28;20085;-59
2022/01/20 11:24:39;;;;;;;18.30;4.68;;;4.60;99.90;;;;;;4989503;28;20135;-59
2022/01/20 11:27:08;;;;;;;16.77;3.42;;;4.70;99.90;;;;;;5076801;28;20041;-60
2022/01/20 11:29:39;;;;;;;19.75;3.85;;;4.60;99.90;;;;;;5004498;28;20130;-59
2022/01/20 11:32:26;;;;;;;15.65;2.42;;;4.60;99.90;;;;;;4991970;28;20133;-60
2022/01/20 11:35:04;;;;;;;9.88;3.35;;;4.60;99.90;;;;;;4972073;28;20056;-60
2022/01/20 11:37:41;;;;;;;6.43;2.00;;;4.70;99.90;;;;;;4984215;28;20056;-60
2022/01/20 11:40:16;;;;;;;10.95;3.08;;;4.70;99.90;;;;;;4975473;28;20537;-59
2022/01/20 11:42:42;;;;;;;16.13;3.50;;;4.60;99.90;;;;;;4989659;28;20509;-59
2022/01/20 11:45:32;;;;;;;11.98;3.60;;;4.70;99.90;;;;;;4994282;28;20134;-60
2022/01/20 11:47:59;;;;;;;22.95;5.53;;;4.80;99.90;;;;;;5004326;28;20107;-60
2022/01/20 11:50:24;;;;;;;16.58;4.35;;;5.10;99.90;;;;;;4991207;28;20061;-59
2022/01/20 11:52:50;;;;;;;19.05;6.55;;;;;;;;;;4990571;28;20546;-59
2022/01/20 11:55:18;;;;;;;14.13;6.60;;;5.00;99.90;;;;;;4993062;28;20418;-60
2022/01/20 11:57:44;;;;;;;22.95;6.60;;;5.20;99.90;;;;;;4997355;28;20054;-61
2022/01/20 12:00:25;;;;;;;15.15;5.00;;;5.20;99.90;;;;;;4974032;28;20049;-59
2022/01/20 12:02:51;;;;;;;17.42;6.90;;;5.30;99.90;;;;;;4995518;28;20420;-59
2022/01/20 12:05:30;;;;;;;12.00;3.17;;;5.30;99.90;;;;;;4991009;28;20057;-60
2022/01/20 12:08:11;;;;;;;8.00;2.40;;;5.40;99.90;;;;;;4978897;28;20094;-60
2022/01/20 12:10:39;;;;;;;15.13;3.58;;;5.20;99.90;;;;;;5002447;28;20037;-60
2022/01/20 12:13:11;;;;;;;17.48;5.00;;;5.50;99.90;;;;;;5027575;28;20539;-60
2022/01/20 12:15:55;;;;;;;14.73;3.70;;;5.40;99.90;;;;;;5039340;28;20520;-59
2022/01/20 12:18:21;;;;;;;15.90;2.45;;;5.60;99.90;;;;;;4986197;28;20045;-61
2022/01/20 12:20:47;;;;;;;13.27;3.45;;;5.50;99.90;;;;;;5054837;28;20175;-60
2022/01/20 12:23:13;;;;;;;14.68;3.95;;;5.40;99.90;;;;;;5054357;28;20056;-59
2022/01/20 12:25:39;;;;;;;15.40;3.50;;;5.40;99.90;;;;;;4991280;28;20034;-60
2022/01/20 12:28:10;;;;;;;11.98;3.50;;;5.10;99.90;;;;;;4994531;28;20042;-59
2022/01/20 12:30:39;;;;;;;11.55;3.80;;;5.10;99.90;;;;;;4991006;28;20049;-59
2022/01/20 12:33:13;;;;;;;11.93;2.92;;;5.40;99.90;;;;;;4974761;28;20056;-62
2022/01/20 12:35:40;;;;;;;19.90;7.72;;;5.20;99.90;;;;;;5011725;28;20050;-59
2022/01/20 12:38:16;;;;;;;13.32;3.17;;;5.10;99.90;;;;;;4980817;28;20046;-60
2022/01/20 12:40:42;;;;;;;10.60;2.25;;;;;;;;;;4969804;28;20053;-60
2022/01/20 12:43:08;;;;;;;8.60;2.72;;;5.10;99.90;;;;;;4971974;28;20045;-59
2022/01/20 12:48:18;;;;;;;9.90;2.90;;;5.00;99.90;;;;;;4972129;28;20104;-61
2022/01/20 12:51:10;;;;;;;14.35;2.42;;;5.00;99.90;;;;;;5002776;28;20128;-60
2022/01/20 12:53:39;;;;;;;10.18;3.42;;;5.00;99.90;;;;;;5004866;28;20084;-60
2022/01/20 12:56:08;;;;;;;13.10;2.38;;;4.90;99.90;;;;;;4970975;28;20054;-62
2022/01/20 12:59:04;;;;;;;10.88;2.75;;;5.20;99.90;;;;;;5030178;28;20390;-61
2022/01/20 13:01:38;;;;;;;;;;;5.20;99.90;;;;;;5009875;28;20085;-60
2022/01/20 13:04:05;;;;;;;10.50;3.00;;;5.20;99.90;;;;;;5003569;28;20382;-61
2022/01/20 13:06:32;;;;;;;7.47;2.22;;;5.10;99.90;;;;;;5032503;28;20053;-60
2022/01/20 13:09:09;;;;;;;14.02;2.10;;;4.90;99.90;;;;;;4989332;28;20410;-61
2022/01/20 13:11:46;;;;;;;15.98;3.22;;;5.30;99.90;;;;;;4989789;28;20124;-61
2022/01/20 13:14:12;;;;;;;11.82;4.03;;;5.30;99.90;;;;;;4990148;28;20041;-62
2022/01/20 13:16:52;;;;;;;12.85;2.58;;;5.30;99.90;;;;;;4972958;28;20406;-61
2022/01/20 13:19:19;;;;;;;8.18;1.95;;;5.30;99.90;;;;;;4982259;28;20049;-60
2022/01/20 13:21:52;;;;;;;9.45;2.53;;;5.30;99.90;;;;;;4970903;28;20053;-60
2022/01/20 13:24:28;;;;;;;12.30;2.33;;;4.80;99.90;;;;;;4969780;28;20104;-61
2022/01/20 13:26:56;;;;;;;6.80;2.58;;;;;;;;;;5041136;28;20034;-60
2022/01/20 13:29:23;;;;;;;10.70;3.95;;;5.00;99.90;;;;;;5014738;28;20056;-61
2022/01/20 13:31:57;;;;;;;8.43;2.20;;;4.40;99.90;;;;;;4971628;28;20132;-61
2022/01/20 13:34:23;;;;;;;13.10;2.83;;;4.20;99.90;;;;;;4998699;28;20041;-60
2022/01/20 13:36:53;;;;;;;8.90;2.42;;;4.30;99.90;;;;;;4972337;28;20396;-62
2022/01/20 13:39:29;;;;;;;9.05;2.17;;;4.40;99.90;;;;;;4973019;28;20050;-60
2022/01/20 13:42:27;;;;;;;13.07;2.00;;;4.40;99.90;;;;;;4972383;28;20039;-61
2022/01/20 13:45:14;;;;;;;10.73;4.15;;;4.50;99.90;;;;;;4971805;28;20133;-61
2022/01/20 13:47:55;;;;;;;5.28;1.67;;;4.30;99.90;;;;;;5032193;28;20111;-60
2022/01/20 13:50:28;;;;;;;4.18;1.25;;;4.10;99.90;;;;;;5067065;28;20061;-60
2022/01/20 13:52:55;;;;;;;5.85;2.05;;;3.70;99.90;;;;;;5063561;28;20041;-60
2022/01/20 13:55:32;;;;;;;8.82;1.83;;;3.50;99.90;;;;;;4992714;28;20046;-60
2022/01/20 13:58:01;;;;;;;5.55;1.25;;;3.30;99.90;;;;;;4975028;28;21129;-60
2022/01/20 14:00:29;;;;;;;7.22;1.23;;;3.20;99.90;;;;;;4988569;28;20061;-60
2022/01/20 14:02:55;;;;;;;4.10;1.50;;;3.20;99.90;;;;;;4969809;28;20157;-60
2022/01/20 14:05:27;;;;;;;9.63;1.83;;;3.30;99.90;;;;;;4988659;28;20517;-61
2022/01/20 14:07:52;;;;;;;5.18;1.55;;;3.30;99.90;;;;;;4969392;28;20049;-61
2022/01/20 14:10:18;;;;;;;8.82;1.92;;;3.40;99.90;;;;;;4993116;28;20406;-61
2022/01/20 14:12:44;;;;;;;6.63;2.05;;;3.50;99.90;;;;;;4988220;28;20149;-62
2022/01/20 14:15:10;;;;;;;10.38;2.42;;;3.50;99.90;;;;;;4988443;28;20049;-62
2022/01/20 14:17:38;;;;;;;11.52;2.75;;;3.60;99.90;;;;;;5007537;28;20754;-60
2022/01/20 14:20:12;;;;;;;6.70;2.65;;;3.70;99.90;;;;;;5008593;28;20565;-60
2022/01/20 14:22:39;;;;;;;17.83;3.47;;;3.80;99.90;;;;;;5001376;28;20049;-60